sensor_id;sensor_type;location;lat;lon;timestamp;pressure;altitude;pressure_sealevel;temperature;humidity
59104;BME280;51449;51.676;5.812;2023-04-01T00:01:19;99045.56;;;10.61;89.27
59104;BME280;51449;51.676;5.812;2023-04-01T00:03:42;99041.19;;;10.60;89.25
59104;BME280;51449;51.676;5.812;2023-04-01T00:06:05;99032.94;;;10.60;89.23
59104;BME280;51449;51.676;5.812;2023-04-01T00:08:27;99050.66;;;10.59;89.48
59104;BME280;51449;51.676;5.812;2023-04-01T00:10:50;99040.78;;;10.58;89.52
59104;BME280;51449;51.676;5.812;2023-04-01T00:13:12;99045.91;;;10.56;89.41
59104;BME280;51449;51.676;5.812;2023-04-01T00:15:34;99046.25;;;10.55;89.67
59104;BME280;51449;51.676;5.812;2023-04-01T00:17:56;99047.06;;;10.55;89.90
59104;BME280;51449;51.676;5.812;2023-04-01T00:20:18;99048.25;;;10.58;89.34
59104;BME280;51449;51.676;5.812;2023-04-01T00:22:40;99043.94;;;10.57;89.42
59104;BME280;51449;51.676;5.812;2023-04-01T00:25:03;99049.03;;;10.58;89.67
59104;BME280;51449;51.676;5.812;2023-04-01T00:27:26;99058.06;;;10.55;89.57
59104;BME280;51449;51.676;5.812;2023-04-01T00:29:47;99052.56;;;10.55;89.66
59104;BME280;51449;51.676;5.812;2023-04-01T00:32:09;99051.00;;;10.58;89.66
59104;BME280;51449;51.676;5.812;2023-04-01T00:34:31;99058.06;;;10.55;89.36
59104;BME280;51449;51.676;5.812;2023-04-01T00:36:53;99056.09;;;10.56;89.48
59104;BME280;51449;51.676;5.812;2023-04-01T00:39:16;99055.31;;;10.55;89.60
59104;BME280;51449;51.676;5.812;2023-04-01T00:41:37;99054.53;;;10.55;89.92
59104;BME280;51449;51.676;5.812;2023-04-01T00:44:24;99056.50;;;10.54;89.77
59104;BME280;51449;51.676;5.812;2023-04-01T00:46:48;99060.00;;;10.51;90.02
59104;BME280;51449;51.676;5.812;2023-04-01T00:49:10;99063.16;;;10.53;89.77
59104;BME280;51449;51.676;5.812;2023-04-01T00:51:32;99054.91;;;10.53;90.07
59104;BME280;51449;51.676;5.812;2023-04-01T00:53:58;99056.06;;;10.52;89.96
59104;BME280;51449;51.676;5.812;2023-04-01T00:56:35;99064.34;;;10.52;90.00
59104;BME280;51449;51.676;5.812;2023-04-01T00:59:07;99063.91;;;10.50;90.14
59104;BME280;51449;51.676;5.812;2023-04-01T01:01:33;99062.75;;;10.51;90.17
59104;BME280;51449;51.676;5.812;2023-04-01T01:03:56;99064.34;;;10.52;89.91
59104;BME280;51449;51.676;5.812;2023-04-01T01:06:57;99069.09;;;10.55;89.99
59104;BME280;51449;51.676;5.812;2023-04-01T01:09:41;99069.06;;;10.52;90.14
59104;BME280;51449;51.676;5.812;2023-04-01T01:12:20;99077.69;;;10.50;90.39
59104;BME280;51449;51.676;5.812;2023-04-01T01:17:52;99075.31;;;10.48;90.48
59104;BME280;51449;51.676;5.812;2023-04-01T01:23:57;99080.06;;;10.52;90.49
59104;BME280;51449;51.676;5.812;2023-04-01T01:26:58;99081.22;;;10.50;90.50
59104;BME280;51449;51.676;5.812;2023-04-01T01:35:14;99087.94;;;10.53;90.62
59104;BME280;51449;51.676;5.812;2023-04-01T01:38:02;99092.66;;;10.53;90.40
59104;BME280;51449;51.676;5.812;2023-04-01T01:40:31;99088.69;;;10.50;90.45
59104;BME280;51449;51.676;5.812;2023-04-01T01:42:59;99095.38;;;10.49;90.82
59104;BME280;51449;51.676;5.812;2023-04-01T01:45:28;99098.16;;;10.53;90.46
59104;BME280;51449;51.676;5.812;2023-04-01T01:47:55;99096.59;;;10.52;90.44
59104;BME280;51449;51.676;5.812;2023-04-01T01:50:20;99099.72;;;10.50;90.65
59104;BME280;51449;51.676;5.812;2023-04-01T01:52:43;99092.66;;;10.53;90.36
59104;BME280;51449;51.676;5.812;2023-04-01T01:55:28;99105.63;;;10.52;90.64
59104;BME280;51449;51.676;5.812;2023-04-01T01:58:00;99102.88;;;10.52;90.61
59104;BME280;51449;51.676;5.812;2023-04-01T02:00:27;99106.44;;;10.53;90.39
59104;BME280;51449;51.676;5.812;2023-04-01T02:02:50;99103.66;;;10.53;90.70
59104;BME280;51449;51.676;5.812;2023-04-01T02:05:18;99103.31;;;10.54;90.48
59104;BME280;51449;51.676;5.812;2023-04-01T02:07:48;99104.84;;;10.52;90.63
59104;BME280;51449;51.676;5.812;2023-04-01T02:10:22;99109.97;;;10.53;90.77
59104;BME280;51449;51.676;5.812;2023-04-01T02:12:47;99115.47;;;10.53;90.58
59104;BME280;51449;51.676;5.812;2023-04-01T02:15:14;99112.00;;;10.56;90.74
59104;BME280;51449;51.676;5.812;2023-04-01T02:17:42;99120.25;;;10.56;90.56
59104;BME280;51449;51.676;5.812;2023-04-01T02:20:16;99115.09;;;10.55;90.87
59104;BME280;51449;51.676;5.812;2023-04-01T02:22:44;99125.75;;;10.56;90.76
59104;BME280;51449;51.676;5.812;2023-04-01T02:25:13;99117.06;;;10.54;90.54
59104;BME280;51449;51.676;5.812;2023-04-01T02:27:42;99125.75;;;10.56;90.68
59104;BME280;51449;51.676;5.812;2023-04-01T02:30:06;99127.66;;;10.52;90.86
59104;BME280;51449;51.676;5.812;2023-04-01T02:32:30;99122.53;;;10.50;90.88
59104;BME280;51449;51.676;5.812;2023-04-01T02:34:55;99126.50;;;10.53;90.96
59104;BME280;51449;51.676;5.812;2023-04-01T02:37:18;99131.59;;;10.51;91.02
59104;BME280;51449;51.676;5.812;2023-04-01T02:39:40;99130.00;;;10.50;90.89
59104;BME280;51449;51.676;5.812;2023-04-01T02:42:04;99132.75;;;10.50;91.06
59104;BME280;51449;51.676;5.812;2023-04-01T02:44:26;99136.72;;;10.53;90.77
59104;BME280;51449;51.676;5.812;2023-04-01T02:46:48;99137.50;;;10.53;90.78
59104;BME280;51449;51.676;5.812;2023-04-01T02:49:10;99133.59;;;10.54;90.80
59104;BME280;51449;51.676;5.812;2023-04-01T02:51:32;99137.50;;;10.53;90.89
59104;BME280;51449;51.676;5.812;2023-04-01T02:53:55;99143.41;;;10.52;90.58
59104;BME280;51449;51.676;5.812;2023-04-01T02:56:16;99140.66;;;10.52;90.66
59104;BME280;51449;51.676;5.812;2023-04-01T02:58:38;99137.91;;;10.52;90.36
59104;BME280;51449;51.676;5.812;2023-04-01T03:01:00;99137.38;;;10.42;90.28
59104;BME280;51449;51.676;5.812;2023-04-01T03:03:22;99142.84;;;10.39;90.67
59104;BME280;51449;51.676;5.812;2023-04-01T03:05:44;99143.97;;;10.34;90.64
59104;BME280;51449;51.676;5.812;2023-04-01T03:08:06;99145.09;;;10.30;90.84
59104;BME280;51449;51.676;5.812;2023-04-01T03:10:27;99141.94;;;10.31;90.78
59104;BME280;51449;51.676;5.812;2023-04-01T03:12:49;99147.88;;;10.33;90.60
59104;BME280;51449;51.676;5.812;2023-04-01T03:15:12;99153.34;;;10.30;90.76
59104;BME280;51449;51.676;5.812;2023-04-01T03:17:35;99143.50;;;10.28;90.65
59104;BME280;51449;51.676;5.812;2023-04-01T03:19:57;99149.72;;;10.25;90.85
59104;BME280;51449;51.676;5.812;2023-04-01T03:22:19;99151.25;;;10.23;91.15
59104;BME280;51449;51.676;5.812;2023-04-01T03:24:42;99153.66;;;10.24;91.14
59104;BME280;51449;51.676;5.812;2023-04-01T03:27:04;99162.31;;;10.26;91.26
59104;BME280;51449;51.676;5.812;2023-04-01T03:29:25;99160.72;;;10.25;91.27
59104;BME280;51449;51.676;5.812;2023-04-01T03:31:47;99154.50;;;10.28;91.26
59104;BME280;51449;51.676;5.812;2023-04-01T03:34:09;99157.97;;;10.25;91.00
59104;BME280;51449;51.676;5.812;2023-04-01T03:36:31;99162.69;;;10.25;91.11
59104;BME280;51449;51.676;5.812;2023-04-01T03:38:53;99167.81;;;10.26;91.27
59104;BME280;51449;51.676;5.812;2023-04-01T03:41:22;99162.31;;;10.26;91.23
59104;BME280;51449;51.676;5.812;2023-04-01T03:43:44;99152.56;;;10.29;91.15
59104;BME280;51449;51.676;5.812;2023-04-01T03:46:06;99163.56;;;10.29;90.80
59104;BME280;51449;51.676;5.812;2023-04-01T03:48:28;99161.97;;;10.28;91.13
59104;BME280;51449;51.676;5.812;2023-04-01T03:50:50;99158.41;;;10.27;90.82
59104;BME280;51449;51.676;5.812;2023-04-01T03:53:11;99160.72;;;10.25;91.08
59104;BME280;51449;51.676;5.812;2023-04-01T03:55:36;99170.22;;;10.28;91.09
59104;BME280;51449;51.676;5.812;2023-04-01T03:57:59;99160.00;;;10.28;90.97
59104;BME280;51449;51.676;5.812;2023-04-01T04:00:23;99169.41;;;10.27;91.00
59104;BME280;51449;51.676;5.812;2023-04-01T04:02:48;99170.22;;;10.28;90.94
59104;BME280;51449;51.676;5.812;2023-04-01T04:05:15;99168.25;;;10.28;90.85
59104;BME280;51449;51.676;5.812;2023-04-01T04:07:37;99167.81;;;10.26;90.93
59104;BME280;51449;51.676;5.812;2023-04-01T04:10:01;99172.91;;;10.24;91.08
59104;BME280;51449;51.676;5.812;2023-04-01T04:12:43;99172.06;;;10.20;91.29
59104;BME280;51449;51.676;5.812;2023-04-01T04:15:25;99173.25;;;10.19;91.49
59104;BME280;51449;51.676;5.812;2023-04-01T04:18:07;99180.63;;;10.15;91.96
59104;BME280;51449;51.676;5.812;2023-04-01T04:20:49;99182.97;;;10.13;91.70
59104;BME280;51449;51.676;5.812;2023-04-01T04:23:33;99185.34;;;10.15;91.82
59104;BME280;51449;51.676;5.812;2023-04-01T04:26:15;99184.16;;;10.12;91.74
59104;BME280;51449;51.676;5.812;2023-04-01T04:29:02;99186.47;;;10.10;91.57
59104;BME280;51449;51.676;5.812;2023-04-01T04:31:45;99189.53;;;10.05;91.76
59104;BME280;51449;51.676;5.812;2023-04-01T04:34:27;99191.13;;;10.06;91.66
59104;BME280;51449;51.676;5.812;2023-04-01T04:37:08;99190.75;;;10.07;91.75
59104;BME280;51449;51.676;5.812;2023-04-01T04:39:51;99197.03;;;10.08;91.97
59104;BME280;51449;51.676;5.812;2023-04-01T04:42:13;99200.53;;;10.05;91.62
59104;BME280;51449;51.676;5.812;2023-04-01T04:44:36;99198.19;;;10.07;91.66
59104;BME280;51449;51.676;5.812;2023-04-01T04:46:57;99197.38;;;10.03;91.65
59104;BME280;51449;51.676;5.812;2023-04-01T04:49:20;99193.41;;;10.00;91.54
59104;BME280;51449;51.676;5.812;2023-04-01T04:51:42;99203.53;;;9.96;91.68
59104;BME280;51449;51.676;5.812;2023-04-01T04:54:05;99204.72;;;9.95;91.96
59104;BME280;51449;51.676;5.812;2023-04-01T04:56:51;99211.75;;;9.93;91.95
59104;BME280;51449;51.676;5.812;2023-04-01T04:59:15;99210.53;;;9.90;92.02
59104;BME280;51449;51.676;5.812;2023-04-01T05:01:55;99215.22;;;9.90;92.16
59104;BME280;51449;51.676;5.812;2023-04-01T05:04:17;99216.03;;;9.90;92.02
59104;BME280;51449;51.676;5.812;2023-04-01T05:06:39;99220.72;;;9.90;92.00
59104;BME280;51449;51.676;5.812;2023-04-01T05:09:01;99223.13;;;9.91;91.84
59104;BME280;51449;51.676;5.812;2023-04-01T05:11:23;99219.19;;;9.92;91.68
59104;BME280;51449;51.676;5.812;2023-04-01T05:13:45;99218.41;;;9.92;91.49
59104;BME280;51449;51.676;5.812;2023-04-01T05:16:13;99226.31;;;9.93;91.64
59104;BME280;51449;51.676;5.812;2023-04-01T05:18:37;99243.56;;;9.90;92.01
59104;BME280;51449;51.676;5.812;2023-04-01T05:20:59;99232.13;;;9.88;91.77
59104;BME280;51449;51.676;5.812;2023-04-01T05:23:22;99237.19;;;9.86;91.75
59104;BME280;51449;51.676;5.812;2023-04-01T05:25:44;99226.97;;;9.86;91.75
59104;BME280;51449;51.676;5.812;2023-04-01T05:28:06;99239.50;;;9.84;92.04
59104;BME280;51449;51.676;5.812;2023-04-01T05:30:28;99235.59;;;9.85;92.36
59104;BME280;51449;51.676;5.812;2023-04-01T05:33:04;99252.09;;;9.85;92.21
59104;BME280;51449;51.676;5.812;2023-04-01T05:35:26;99246.66;;;9.89;91.96
59104;BME280;51449;51.676;5.812;2023-04-01T05:37:48;99256.09;;;9.88;92.16
59104;BME280;51449;51.676;5.812;2023-04-01T05:40:10;99255.69;;;9.89;91.93
59104;BME280;51449;51.676;5.812;2023-04-01T05:42:34;99262.00;;;9.90;92.36
59104;BME280;51449;51.676;5.812;2023-04-01T05:44:58;99266.69;;;9.89;92.43
59104;BME280;51449;51.676;5.812;2023-04-01T05:47:38;99267.13;;;9.91;92.63
59104;BME280;51449;51.676;5.812;2023-04-01T05:50:00;99275.38;;;9.91;92.47
59104;BME280;51449;51.676;5.812;2023-04-01T05:52:23;99275.03;;;9.93;92.47
59104;BME280;51449;51.676;5.812;2023-04-01T05:54:45;99271.53;;;9.96;92.47
59104;BME280;51449;51.676;5.812;2023-04-01T05:57:07;99272.69;;;9.95;92.86
59104;BME280;51449;51.676;5.812;2023-04-01T05:59:29;99280.53;;;9.93;92.83
59104;BME280;51449;51.676;5.812;2023-04-01T06:01:53;99273.06;;;9.93;93.07
59104;BME280;51449;51.676;5.812;2023-04-01T06:04:16;99281.81;;;9.99;92.87
59104;BME280;51449;51.676;5.812;2023-04-01T06:06:40;99290.13;;;10.02;92.75
59104;BME280;51449;51.676;5.812;2023-04-01T06:09:19;99292.44;;;10.00;92.71
59104;BME280;51449;51.676;5.812;2023-04-01T06:15:00;99301.84;;;9.99;93.08
59104;BME280;51449;51.676;5.812;2023-04-01T06:26:37;99312.25;;;10.10;93.50
59104;BME280;51449;51.676;5.812;2023-04-01T06:44:04;99344.56;;;10.36;92.83
59104;BME280;51449;51.676;5.812;2023-04-01T06:47:08;99337.47;;;10.35;92.71
59104;BME280;51449;51.676;5.812;2023-04-01T06:56:54;99352.59;;;10.48;92.36
59104;BME280;51449;51.676;5.812;2023-04-01T06:59:25;99358.63;;;10.54;92.28
59104;BME280;51449;51.676;5.812;2023-04-01T07:01:55;99362.16;;;10.54;92.36
59104;BME280;51449;51.676;5.812;2023-04-01T07:04:34;99363.00;;;10.58;91.91
59104;BME280;51449;51.676;5.812;2023-04-01T07:07:04;99367.03;;;10.64;92.00
59104;BME280;51449;51.676;5.812;2023-04-01T07:09:53;99374.94;;;10.66;91.65
59104;BME280;51449;51.676;5.812;2023-04-01T07:12:36;99372.97;;;10.66;91.63
59104;BME280;51449;51.676;5.812;2023-04-01T07:15:39;99378.53;;;10.70;91.59
59104;BME280;51449;51.676;5.812;2023-04-01T07:18:12;99384.91;;;10.74;91.37
59104;BME280;51449;51.676;5.812;2023-04-01T07:20:39;99393.50;;;10.73;91.23
59104;BME280;51449;51.676;5.812;2023-04-01T07:23:04;99383.34;;;10.77;91.20
59104;BME280;51449;51.676;5.812;2023-04-01T07:25:48;99393.94;;;10.75;91.05
59104;BME280;51449;51.676;5.812;2023-04-01T07:28:33;99398.34;;;10.79;91.01
59104;BME280;51449;51.676;5.812;2023-04-01T07:31:41;99397.72;;;10.89;90.67
59104;BME280;51449;51.676;5.812;2023-04-01T07:34:25;99404.88;;;10.94;90.30
59104;BME280;51449;51.676;5.812;2023-04-01T07:37:33;99408.81;;;10.93;90.19
59104;BME280;51449;51.676;5.812;2023-04-01T07:40:05;99417.50;;;10.95;89.60
59104;BME280;51449;51.676;5.812;2023-04-01T07:48:19;99430.88;;;10.97;89.00
59104;BME280;51449;51.676;5.812;2023-04-01T07:51:02;99421.41;;;10.94;89.27
59104;BME280;51449;51.676;5.812;2023-04-01T07:53:38;99430.84;;;10.93;89.19
59104;BME280;51449;51.676;5.812;2023-04-01T07:56:24;99425.75;;;10.95;88.68
59104;BME280;51449;51.676;5.812;2023-04-01T08:12:23;99457.97;;;10.91;89.62
59104;BME280;51449;51.676;5.812;2023-04-01T08:15:27;99470.16;;;10.90;89.91
59104;BME280;51449;51.676;5.812;2023-04-01T08:18:33;99472.06;;;10.86;89.94
59104;BME280;51449;51.676;5.812;2023-04-01T08:21:22;99470.53;;;10.88;89.97
59104;BME280;51449;51.676;5.812;2023-04-01T08:23:48;99479.22;;;10.90;89.56
59104;BME280;51449;51.676;5.812;2023-04-01T08:26:26;99482.69;;;10.87;89.51
59104;BME280;51449;51.676;5.812;2023-04-01T08:29:04;99482.69;;;10.87;89.67
59104;BME280;51449;51.676;5.812;2023-04-01T08:34:40;99496.19;;;10.92;89.34
59104;BME280;51449;51.676;5.812;2023-04-01T08:37:21;99502.50;;;10.93;89.82
59104;BME280;51449;51.676;5.812;2023-04-01T08:39:58;99505.91;;;10.86;90.01
59104;BME280;51449;51.676;5.812;2023-04-01T08:42:58;99504.75;;;10.87;89.72
59104;BME280;51449;51.676;5.812;2023-04-01T08:48:26;99508.31;;;10.88;90.05
59104;BME280;51449;51.676;5.812;2023-04-01T08:54:46;99522.88;;;10.88;89.81
59104;BME280;51449;51.676;5.812;2023-04-01T09:10:59;99551.91;;;11.05;89.20
59104;BME280;51449;51.676;5.812;2023-04-01T09:17:48;99558.66;;;11.08;89.34
59104;BME280;51449;51.676;5.812;2023-04-01T09:20:31;99558.66;;;11.08;89.16
59104;BME280;51449;51.676;5.812;2023-04-01T09:29:10;99575.31;;;11.15;89.07
59104;BME280;51449;51.676;5.812;2023-04-01T09:44:03;99598.81;;;11.09;89.28
59104;BME280;51449;51.676;5.812;2023-04-01T09:47:28;99596.13;;;11.12;89.11
59104;BME280;51449;51.676;5.812;2023-04-01T09:49:55;99585.09;;;11.12;88.56
59104;BME280;51449;51.676;5.812;2023-04-01T09:52:34;99603.19;;;11.10;89.20
59104;BME280;51449;51.676;5.812;2023-04-01T09:56:08;99596.44;;;11.07;88.99
59104;BME280;51449;51.676;5.812;2023-04-01T09:58:39;99599.69;;;11.13;89.08
59104;BME280;51449;51.676;5.812;2023-04-01T10:08:40;99611.69;;;11.24;89.19
59104;BME280;51449;51.676;5.812;2023-04-01T10:11:59;99618.06;;;11.28;88.41
59104;BME280;51449;51.676;5.812;2023-04-01T10:36:34;99648.91;;;11.34;87.38
59104;BME280;51449;51.676;5.812;2023-04-01T10:39:19;99650.03;;;11.33;87.83
59104;BME280;51449;51.676;5.812;2023-04-01T10:42:21;99646.19;;;11.38;88.04
59104;BME280;51449;51.676;5.812;2023-04-01T10:58:56;99665.56;;;11.41;87.76
59104;BME280;51449;51.676;5.812;2023-04-01T11:11:07;99672.34;;;11.47;87.74
59104;BME280;51449;51.676;5.812;2023-04-01T11:25:56;99684.53;;;11.92;87.53
59104;BME280;51449;51.676;5.812;2023-04-01T11:29:00;99689.31;;;11.95;86.15
59104;BME280;51449;51.676;5.812;2023-04-01T11:31:41;99690.13;;;11.96;86.51
59104;BME280;51449;51.676;5.812;2023-04-01T11:40:49;99705.44;;;11.93;86.46
59104;BME280;51449;51.676;5.812;2023-04-01T12:04:41;99735.81;;;11.93;87.10
59104;BME280;51449;51.676;5.812;2023-04-01T12:07:29;99739.38;;;11.94;87.10
59104;BME280;51449;51.676;5.812;2023-04-01T12:10:18;99734.31;;;11.99;87.10
59104;BME280;51449;51.676;5.812;2023-04-01T12:12:54;99750.16;;;12.03;87.16
59104;BME280;51449;51.676;5.812;2023-04-01T12:15:46;99753.28;;;12.01;87.09
59104;BME280;51449;51.676;5.812;2023-04-01T12:27:20;99759.41;;;12.14;86.58
59104;BME280;51449;51.676;5.812;2023-04-01T12:35:44;99766.44;;;12.34;84.86
59104;BME280;51449;51.676;5.812;2023-04-01T12:55:22;99786.94;;;12.60;84.33
59104;BME280;51449;51.676;5.812;2023-04-01T13:03:48;99800.34;;;12.88;83.34
59104;BME280;51449;51.676;5.812;2023-04-01T13:18:50;99812.41;;;12.46;83.84
59104;BME280;51449;51.676;5.812;2023-04-01T13:21:36;99820.63;;;12.42;84.10
59104;BME280;51449;51.676;5.812;2023-04-01T13:24:22;99817.84;;;12.42;84.50
59104;BME280;51449;51.676;5.812;2023-04-01T13:27:03;99821.78;;;12.41;84.48
59104;BME280;51449;51.676;5.812;2023-04-01T13:41:04;99841.69;;;12.28;84.52
59104;BME280;51449;51.676;5.812;2023-04-01T13:43:35;99840.28;;;12.14;85.01
59104;BME280;51449;51.676;5.812;2023-04-01T13:48:39;99846.59;;;12.15;85.71
59104;BME280;51449;51.676;5.812;2023-04-01T14:03:30;99866.84;;;11.99;85.98
59104;BME280;51449;51.676;5.812;2023-04-01T14:06:09;99866.69;;;11.92;86.21
59104;BME280;51449;51.676;5.812;2023-04-01T14:08:55;99875.38;;;11.91;86.00
59104;BME280;51449;51.676;5.812;2023-04-01T14:17:35;99882.47;;;11.92;86.50
59104;BME280;51449;51.676;5.812;2023-04-01T14:25:58;99894.38;;;11.96;86.40
59104;BME280;51449;51.676;5.812;2023-04-01T14:48:05;99907.28;;;12.11;87.02
59104;BME280;51449;51.676;5.812;2023-04-01T14:51:03;99906.13;;;12.12;87.05
59104;BME280;51449;51.676;5.812;2023-04-01T14:53:36;99910.47;;;12.13;87.29
59104;BME280;51449;51.676;5.812;2023-04-01T14:56:07;99918.84;;;12.17;87.18
59104;BME280;51449;51.676;5.812;2023-04-01T14:58:43;99926.75;;;12.18;86.38
59104;BME280;51449;51.676;5.812;2023-04-01T15:01:35;99927.47;;;12.15;86.24
59104;BME280;51449;51.676;5.812;2023-04-01T15:04:48;99927.78;;;12.10;86.61
59104;BME280;51449;51.676;5.812;2023-04-01T15:07:41;99932.50;;;12.10;86.40
59104;BME280;51449;51.676;5.812;2023-04-01T15:16:46;99939.63;;;12.11;87.05
59104;BME280;51449;51.676;5.812;2023-04-01T15:19:54;99945.94;;;12.11;86.97
59104;BME280;51449;51.676;5.812;2023-04-01T15:22:37;99942.75;;;12.09;87.21
59104;BME280;51449;51.676;5.812;2023-04-01T15:28:53;99957.78;;;12.12;87.09
59104;BME280;51449;51.676;5.812;2023-04-01T15:48:33;99982.38;;;11.97;86.98
59104;BME280;51449;51.676;5.812;2023-04-01T15:53:49;99996.53;;;11.96;87.34
59104;BME280;51449;51.676;5.812;2023-04-01T16:06:34;100007.25;;;11.82;86.97
59104;BME280;51449;51.676;5.812;2023-04-01T16:11:57;100018.63;;;11.80;87.38
59104;BME280;51449;51.676;5.812;2023-04-01T16:14:31;100024.97;;;11.81;87.59
59104;BME280;51449;51.676;5.812;2023-04-01T16:17:30;100022.56;;;11.79;87.58
59104;BME280;51449;51.676;5.812;2023-04-01T16:20:18;100026.06;;;11.76;87.79
59104;BME280;51449;51.676;5.812;2023-04-01T16:23:02;100022.75;;;11.70;87.94
59104;BME280;51449;51.676;5.812;2023-04-01T16:25:40;100026.34;;;11.71;87.86
59104;BME280;51449;51.676;5.812;2023-04-01T16:28:31;100035.06;;;11.73;88.11
59104;BME280;51449;51.676;5.812;2023-04-01T16:31:12;100040.94;;;11.71;88.03
59104;BME280;51449;51.676;5.812;2023-04-01T16:37:13;100050.00;;;11.72;88.53
59104;BME280;51449;51.676;5.812;2023-04-01T16:42:49;100060.25;;;11.71;88.39
59104;BME280;51449;51.676;5.812;2023-04-01T16:45:26;100061.03;;;11.72;88.76
59104;BME280;51449;51.676;5.812;2023-04-01T16:48:13;100061.84;;;11.72;88.59
59104;BME280;51449;51.676;5.812;2023-04-01T16:51:00;100072.88;;;11.72;88.55
59104;BME280;51449;51.676;5.812;2023-04-01T16:53:40;100072.88;;;11.72;88.64
59104;BME280;51449;51.676;5.812;2023-04-01T16:56:24;100076.06;;;11.74;88.74
59104;BME280;51449;51.676;5.812;2023-04-01T16:59:07;100084.34;;;11.74;88.42
59104;BME280;51449;51.676;5.812;2023-04-01T17:01:56;100093.44;;;11.75;88.55
59104;BME280;51449;51.676;5.812;2023-04-01T17:07:33;100103.78;;;11.78;88.03
59104;BME280;51449;51.676;5.812;2023-04-01T17:24:53;100145.97;;;11.63;87.49
59104;BME280;51449;51.676;5.812;2023-04-01T17:27:57;100153.56;;;11.66;87.47
59104;BME280;51449;51.676;5.812;2023-04-01T17:30:39;100155.13;;;11.67;87.61
59104;BME280;51449;51.676;5.812;2023-04-01T17:33:42;100163.06;;;11.68;87.22
59104;BME280;51449;51.676;5.812;2023-04-01T17:39:07;100182.56;;;11.75;86.95
59104;BME280;51449;51.676;5.812;2023-04-01T17:42:06;100177.03;;;11.75;86.18
59104;BME280;51449;51.676;5.812;2023-04-01T17:44:46;100187.63;;;11.73;86.24
59104;BME280;51449;51.676;5.812;2023-04-01T17:47:28;100196.59;;;11.70;86.14
59104;BME280;51449;51.676;5.812;2023-04-01T17:50:23;100202.06;;;11.67;86.40
59104;BME280;51449;51.676;5.812;2023-04-01T17:53:31;100212.28;;;11.66;86.44
59104;BME280;51449;51.676;5.812;2023-04-01T17:59:49;100226.44;;;11.49;86.08
59104;BME280;51449;51.676;5.812;2023-04-01T18:02:33;100224.44;;;11.33;86.15
59104;BME280;51449;51.676;5.812;2023-04-01T18:07:57;100246.84;;;11.16;86.28
59104;BME280;51449;51.676;5.812;2023-04-01T18:10:56;100248.78;;;11.16;86.49
59104;BME280;51449;51.676;5.812;2023-04-01T18:21:36;100275.31;;;11.20;87.11
59104;BME280;51449;51.676;5.812;2023-04-01T18:24:18;100282.78;;;11.20;86.10
59104;BME280;51449;51.676;5.812;2023-04-01T18:27:14;100294.06;;;11.14;86.17
59104;BME280;51449;51.676;5.812;2023-04-01T18:29:47;100298.66;;;11.10;85.94
59104;BME280;51449;51.676;5.812;2023-04-01T18:32:32;100297.22;;;11.01;85.95
59104;BME280;51449;51.676;5.812;2023-04-01T18:37:59;100332.50;;;10.95;85.78
59104;BME280;51449;51.676;5.812;2023-04-01T18:40:34;100332.03;;;10.93;85.95
59104;BME280;51449;51.676;5.812;2023-04-01T18:43:38;100341.81;;;10.90;85.72
59104;BME280;51449;51.676;5.812;2023-04-01T18:46:27;100348.00;;;10.87;85.84
59104;BME280;51449;51.676;5.812;2023-04-01T18:49:20;100358.13;;;10.83;86.32
59104;BME280;51449;51.676;5.812;2023-04-01T18:52:02;100355.69;;;10.82;85.87
59104;BME280;51449;51.676;5.812;2023-04-01T18:55:18;100372.47;;;10.77;86.52
59104;BME280;51449;51.676;5.812;2023-04-01T18:57:42;100379.81;;;10.73;86.42
59104;BME280;51449;51.676;5.812;2023-04-01T19:00:21;100386.81;;;10.70;86.45
59104;BME280;51449;51.676;5.812;2023-04-01T19:03:31;100398.88;;;10.65;86.25
59104;BME280;51449;51.676;5.812;2023-04-01T19:05:56;100400.72;;;10.61;85.84
59104;BME280;51449;51.676;5.812;2023-04-01T19:08:34;100405.31;;;10.57;85.87
59104;BME280;51449;51.676;5.812;2023-04-01T19:13:56;100409.00;;;10.49;85.39
59104;BME280;51449;51.676;5.812;2023-04-01T19:16:46;100422.31;;;10.47;85.40
59104;BME280;51449;51.676;5.812;2023-04-01T19:21:57;100442.03;;;10.37;85.20
59104;BME280;51449;51.676;5.812;2023-04-01T19:27:14;100441.00;;;10.29;85.84
59104;BME280;51449;51.676;5.812;2023-04-01T19:33:22;100460.88;;;10.26;86.19
59104;BME280;51449;51.676;5.812;2023-04-01T19:36:06;100453.44;;;10.26;85.80
59104;BME280;51449;51.676;5.812;2023-04-01T19:38:52;100467.09;;;10.23;85.44
59104;BME280;51449;51.676;5.812;2023-04-01T19:41:51;100479.59;;;10.20;85.50
59104;BME280;51449;51.676;5.812;2023-04-01T19:44:53;100466.72;;;10.12;85.71
59104;BME280;51449;51.676;5.812;2023-04-01T19:50:50;100490.19;;;9.97;86.03
59104;BME280;51449;51.676;5.812;2023-04-01T19:53:52;100488.44;;;9.93;86.33
59104;BME280;51449;51.676;5.812;2023-04-01T19:56:24;100493.94;;;9.93;86.41
59104;BME280;51449;51.676;5.812;2023-04-01T20:02:04;100510.41;;;9.80;86.68
59104;BME280;51449;51.676;5.812;2023-04-01T20:04:51;100513.59;;;9.82;86.75
59104;BME280;51449;51.676;5.812;2023-04-01T20:07:31;100519.56;;;9.84;86.90
59104;BME280;51449;51.676;5.812;2023-04-01T20:10:20;100531.06;;;9.86;86.85
59104;BME280;51449;51.676;5.812;2023-04-01T20:15:22;100539.50;;;9.81;86.31
59104;BME280;51449;51.676;5.812;2023-04-01T20:17:53;100544.06;;;9.77;86.07
59104;BME280;51449;51.676;5.812;2023-04-01T20:20:20;100557.34;;;9.75;86.02
59104;BME280;51449;51.676;5.812;2023-04-01T20:25:21;100565.47;;;9.72;85.40
59104;BME280;51449;51.676;5.812;2023-04-01T20:31:12;100576.81;;;9.70;84.71
59104;BME280;51449;51.676;5.812;2023-04-01T20:39:33;100604.03;;;9.63;84.99
59104;BME280;51449;51.676;5.812;2023-04-01T20:45:37;100611.16;;;9.64;85.05
59104;BME280;51449;51.676;5.812;2023-04-01T20:48:55;100617.34;;;9.61;85.08
59104;BME280;51449;51.676;5.812;2023-04-01T20:50:59;100627.06;;;9.58;84.97
59104;BME280;51449;51.676;5.812;2023-04-01T20:58:57;100637.97;;;9.46;84.98
59104;BME280;51449;51.676;5.812;2023-04-01T21:07:40;100650.13;;;9.36;84.42
59104;BME280;51449;51.676;5.812;2023-04-01T21:10:34;100658.03;;;9.38;84.80